VHHH

Chek Lap Kok International Airport

Hong Kong, Hong Kong
TAF VHHH 141700Z 1418/1524 03010KT 9999 FEW025 TX19/1506Z TN15/1423Z TN16/1523Z TEMPO 1503/1510 33010KT TEMPO 1510/1518 VRB05KT
Issued Valid From Valid To
Dec-14 @ 17:00 UTC
(5 hours ago)
Dec-14 @ 18:00 UTC
(4 hours ago)
Dec-16 @ 00:00 UTC
(-1 days ago)
Dec-14 @ 18:00 to Dec-16 @ 00:00
TAF VHHH 141700Z 1418/1524 03010KT 9999 FEW025 TX19/1506Z TN15/1423Z TN16/1523Z
Wind Visibility Clouds
30° at 10 knots 10,000+ meters
  • Few at 2,500' AGL
Temporary Dec-15 @ 03:00 to Dec-15 @ 10:00
TEMPO 1503/1510 33010KT
Wind
330° at 10 knots
Temporary Dec-15 @ 10:00 to Dec-15 @ 18:00
TEMPO 1510/1518 VRB05KT
Wind
Variable at 5 knots
TAF VHHH 141700Z 1418/1524 03010KT 9999 FEW025 TX19/1506Z TN15/1423Z TN16/1523Z TEMPO 1503/1510 33010KT TEMPO 1510/1518 VRB05KT
Issued Dec-14 @ 17:00 UTC
(5 hours ago)
Valid From Dec-14 @ 18:00 UTC
(4 hours ago)
Valid To Dec-16 @ 00:00 UTC
(-1 days ago)
Dec-14 @ 18:00 - Dec-16 @ 00:00
Wind Visibility
30° at 10 knots 10,000+ meters
Clouds
  • Few at 2,500' AGL
Temporary Dec-15 @ 03:00 - Dec-15 @ 10:00
Wind
330° at 10 knots
Temporary Dec-15 @ 10:00 - Dec-15 @ 18:00
Wind
Variable at 5 knots